Time,TemperatureF,DewpointF,PressureIn,WindDirection,WindDirectionDegrees,WindSpeedMPH,WindSpeedGustMPH,Humidity,HourlyPrecipIn,Conditions,Clouds,dailyrainin,SolarRadiationWatts/m^2,SoftwareType,DateUTC
2013-04-20 00:02:00,42.0,41.0,-100.00,WNW,300,1.0,2.0,98,0.00,,,0.41,0.000000,,2013-04-20 05:02:00,
2013-04-20 00:32:00,42.0,41.0,-100.00,NNE,28,2.0,4.0,98,0.00,,,0.18,0.000000,,2013-04-20 05:32:00,
2013-04-20 00:43:00,42.0,41.0,-100.00,NNE,28,2.0,4.0,98,0.00,,,0.18,0.000000,,2013-04-20 05:43:00,
2013-04-20 00:52:00,42.0,41.0,-100.00,NNE,28,2.0,4.0,98,0.00,,,0.18,0.000000,,2013-04-20 05:52:00,
2013-04-20 01:02:00,42.0,41.0,-100.00,NNE,28,2.0,4.0,98,0.00,,,0.18,0.000000,,2013-04-20 06:02:00,
2013-04-20 01:32:00,40.0,39.0,-100.00,SE,144,1.0,3.0,97,0.00,,,0.05,0.000000,,2013-04-20 06:32:00,
2013-04-20 01:42:00,40.0,39.0,-100.00,SE,144,1.0,3.0,97,0.00,,,0.05,0.000000,,2013-04-20 06:42:00,
2013-04-20 01:52:00,40.0,39.0,-100.00,SE,144,1.0,3.0,97,0.00,,,0.05,0.000000,,2013-04-20 06:52:00,
2013-04-20 02:01:00,40.0,39.0,-100.00,SE,144,1.0,3.0,97,0.00,,,0.05,0.000000,,2013-04-20 07:01:00,
2013-04-20 02:32:00,38.0,38.0,-100.00,West,280,2.0,3.0,100,0.00,,,-99.99,0.000000,,2013-04-20 07:32:00,
2013-04-20 02:42:00,38.0,38.0,-100.00,West,280,2.0,3.0,100,0.00,,,-99.99,0.000000,,2013-04-20 07:42:00,
2013-04-20 02:52:00,38.0,38.0,-100.00,West,280,2.0,3.0,100,0.00,,,-99.99,0.000000,,2013-04-20 07:52:00,
2013-04-20 03:02:00,38.0,38.0,-100.00,West,280,2.0,3.0,100,0.00,,,-99.99,0.000000,,2013-04-20 08:02:00,
2013-04-20 03:32:00,38.0,38.0,-100.00,WNW,292,2.0,3.0,100,0.00,,,0.01,0.000000,,2013-04-20 08:32:00,
2013-04-20 03:42:00,38.0,38.0,-100.00,WNW,292,2.0,3.0,100,0.00,,,0.01,0.000000,,2013-04-20 08:42:00,
2013-04-20 03:52:00,38.0,38.0,-100.00,WNW,292,2.0,3.0,100,0.00,,,0.01,0.000000,,2013-04-20 08:52:00,
2013-04-20 04:01:00,38.0,38.0,-100.00,WNW,292,2.0,3.0,100,0.00,,,0.01,0.000000,,2013-04-20 09:01:00,
2013-04-20 04:33:00,37.0,37.0,-100.00,SSW,197,0.0,2.0,100,0.00,,,0.01,0.000000,,2013-04-20 09:33:00,
2013-04-20 04:43:00,37.0,37.0,-100.00,SSW,197,0.0,2.0,100,0.00,,,0.01,0.000000,,2013-04-20 09:43:00,
2013-04-20 04:53:00,37.0,37.0,-100.00,SSW,197,0.0,2.0,100,0.00,,,0.01,0.000000,,2013-04-20 09:53:00,
2013-04-20 05:03:00,37.0,37.0,-100.00,SSW,197,0.0,2.0,100,0.00,,,0.01,0.000000,,2013-04-20 10:03:00,
2013-04-20 05:33:00,36.0,36.0,-100.00,North,1,3.0,4.0,100,0.00,,,0.01,0.000000,,2013-04-20 10:33:00,
2013-04-20 05:42:00,36.0,36.0,-100.00,North,1,3.0,4.0,100,0.00,,,0.01,0.000000,,2013-04-20 10:42:00,
2013-04-20 05:53:00,36.0,36.0,-100.00,North,1,3.0,4.0,100,0.00,,,0.01,0.000000,,2013-04-20 10:53:00,
2013-04-20 06:02:00,36.0,36.0,-100.00,North,1,3.0,4.0,100,0.00,,,0.01,0.000000,,2013-04-20 11:02:00,
2013-04-20 06:32:00,40.0,38.0,-100.00,North,358,5.0,6.0,93,0.00,,,0.00,0.000000,,2013-04-20 11:32:00,
2013-04-20 06:42:00,40.0,38.0,-100.00,North,358,5.0,6.0,93,0.00,,,0.00,0.000000,,2013-04-20 11:42:00,
2013-04-20 06:53:00,40.0,38.0,-100.00,North,358,5.0,6.0,93,0.00,,,0.00,0.000000,,2013-04-20 11:53:00,
2013-04-20 07:02:00,40.0,38.0,-100.00,North,358,5.0,6.0,93,0.00,,,0.00,0.000000,,2013-04-20 12:02:00,
2013-04-20 07:32:00,42.0,38.0,-100.00,North,3,4.0,6.0,86,0.00,,,0.00,24.000000,,2013-04-20 12:32:00,
2013-04-20 07:42:00,42.0,38.0,-100.00,North,3,4.0,6.0,86,0.00,,,0.00,24.000000,,2013-04-20 12:42:00,
2013-04-20 07:52:00,42.0,38.0,-100.00,North,3,4.0,6.0,86,0.00,,,0.00,24.000000,,2013-04-20 12:52:00,
2013-04-20 08:02:00,42.0,38.0,-100.00,North,3,4.0,6.0,86,0.00,,,0.00,24.000000,,2013-04-20 13:02:00,
2013-04-20 08:32:00,49.0,42.0,-100.00,NNE,12,4.0,5.0,76,0.00,,,0.00,202.000000,,2013-04-20 13:32:00,
2013-04-20 08:42:00,49.0,42.0,-100.00,NNE,12,4.0,5.0,76,0.00,,,0.00,202.000000,,2013-04-20 13:42:00,
2013-04-20 08:52:00,49.0,42.0,-100.00,NNE,12,4.0,5.0,76,0.00,,,0.00,202.000000,,2013-04-20 13:52:00,
2013-04-20 09:02:00,49.0,42.0,-100.00,NNE,12,4.0,5.0,76,0.00,,,0.00,202.000000,,2013-04-20 14:02:00,
2013-04-20 09:32:00,56.0,41.0,-100.00,NNE,25,5.0,10.0,57,0.00,,,0.00,392.000000,,2013-04-20 14:32:00,
2013-04-20 09:42:00,56.0,41.0,-100.00,NNE,25,5.0,10.0,57,0.00,,,0.00,392.000000,,2013-04-20 14:42:00,
2013-04-20 09:52:00,56.0,41.0,-100.00,NNE,25,5.0,10.0,57,0.00,,,0.00,392.000000,,2013-04-20 14:52:00,
2013-04-20 10:01:00,56.0,41.0,-100.00,NNE,25,5.0,10.0,57,0.00,,,0.00,392.000000,,2013-04-20 15:01:00,
2013-04-20 10:34:00,60.0,33.0,-100.00,NE,35,7.0,12.0,36,0.00,,,0.00,594.000000,,2013-04-20 15:34:00,
2013-04-20 10:43:00,60.0,33.0,-100.00,NE,35,7.0,12.0,36,0.00,,,0.00,594.000000,,2013-04-20 15:43:00,
2013-04-20 10:53:00,60.0,33.0,-100.00,NE,35,7.0,12.0,36,0.00,,,0.00,594.000000,,2013-04-20 15:53:00,
2013-04-20 11:03:00,60.0,33.0,-100.00,NE,35,7.0,12.0,36,0.00,,,0.00,594.000000,,2013-04-20 16:03:00,
2013-04-20 11:33:00,62.0,33.0,-100.00,ENE,69,10.0,16.0,33,0.00,,,0.00,756.000000,,2013-04-20 16:33:00,
2013-04-20 11:42:00,62.0,33.0,-100.00,ENE,69,10.0,16.0,33,0.00,,,0.00,756.000000,,2013-04-20 16:42:00,
2013-04-20 11:53:00,62.0,33.0,-100.00,ENE,69,10.0,16.0,33,0.00,,,0.00,756.000000,,2013-04-20 16:53:00,
2013-04-20 12:02:00,62.0,33.0,-100.00,ENE,69,10.0,16.0,33,0.00,,,0.00,756.000000,,2013-04-20 17:02:00,
2013-04-20 12:33:00,65.0,34.0,-100.00,ENE,62,8.0,16.0,31,0.00,,,0.00,872.000000,,2013-04-20 17:33:00,
2013-04-20 12:42:00,65.0,34.0,-100.00,ENE,62,8.0,16.0,31,0.00,,,0.00,872.000000,,2013-04-20 17:42:00,
2013-04-20 12:52:00,65.0,34.0,-100.00,ENE,62,8.0,16.0,31,0.00,,,0.00,872.000000,,2013-04-20 17:52:00,
2013-04-20 13:02:00,65.0,34.0,-100.00,ENE,62,8.0,16.0,31,0.00,,,0.00,872.000000,,2013-04-20 18:02:00,
2013-04-20 13:32:00,66.0,34.0,-100.00,ENE,60,7.0,17.0,31,0.00,,,0.00,929.000000,,2013-04-20 18:32:00,
2013-04-20 13:42:00,66.0,34.0,-100.00,ENE,60,7.0,17.0,31,0.00,,,0.00,929.000000,,2013-04-20 18:42:00,
2013-04-20 13:52:00,66.0,34.0,-100.00,ENE,60,7.0,17.0,31,0.00,,,0.00,929.000000,,2013-04-20 18:52:00,
2013-04-20 14:02:00,66.0,34.0,-100.00,ENE,60,7.0,17.0,31,0.00,,,0.00,929.000000,,2013-04-20 19:02:00,
2013-04-20 14:32:00,68.0,35.0,-100.00,East,90,7.0,16.0,29,0.00,,,0.00,924.000000,,2013-04-20 19:32:00,
2013-04-20 14:42:00,68.0,35.0,-100.00,East,90,7.0,16.0,29,0.00,,,0.00,924.000000,,2013-04-20 19:42:00,
2013-04-20 14:52:00,68.0,35.0,-100.00,East,90,7.0,16.0,29,0.00,,,0.00,924.000000,,2013-04-20 19:52:00,
2013-04-20 15:02:00,68.0,35.0,-100.00,East,90,7.0,16.0,29,0.00,,,0.00,924.000000,,2013-04-20 20:02:00,
2013-04-20 15:32:00,69.0,36.0,-100.00,ENE,61,7.0,21.0,30,0.00,,,0.00,857.000000,,2013-04-20 20:32:00,
2013-04-20 15:42:00,69.0,36.0,-100.00,ENE,61,7.0,21.0,30,0.00,,,0.00,857.000000,,2013-04-20 20:42:00,
2013-04-20 15:52:00,69.0,36.0,-100.00,ENE,61,7.0,21.0,30,0.00,,,0.00,857.000000,,2013-04-20 20:52:00,
2013-04-20 16:01:00,69.0,36.0,-100.00,ENE,61,7.0,21.0,30,0.00,,,0.00,857.000000,,2013-04-20 21:01:00,
2013-04-20 16:33:00,69.0,35.0,-100.00,NE,35,7.0,16.0,29,0.00,,,-99.99,731.000000,,2013-04-20 21:33:00,
2013-04-20 16:43:00,69.0,35.0,-100.00,NE,35,7.0,16.0,29,0.00,,,-99.99,731.000000,,2013-04-20 21:43:00,
2013-04-20 16:53:00,69.0,35.0,-100.00,NE,35,7.0,16.0,29,0.00,,,-99.99,731.000000,,2013-04-20 21:53:00,
2013-04-20 17:02:00,69.0,35.0,-100.00,NE,35,7.0,16.0,29,0.00,,,-99.99,731.000000,,2013-04-20 22:02:00,
2013-04-20 17:33:00,69.0,35.0,-100.00,NE,36,5.0,16.0,29,0.00,,,0.00,555.000000,,2013-04-20 22:33:00,
2013-04-20 17:42:00,69.0,35.0,-100.00,NE,36,5.0,16.0,29,0.00,,,0.00,555.000000,,2013-04-20 22:42:00,
2013-04-20 17:53:00,69.0,35.0,-100.00,NE,36,5.0,16.0,29,0.00,,,0.00,555.000000,,2013-04-20 22:53:00,
2013-04-20 18:02:00,69.0,35.0,-100.00,NE,36,5.0,16.0,29,0.00,,,0.00,555.000000,,2013-04-20 23:02:00,
2013-04-20 18:32:00,68.0,37.0,-100.00,East,81,8.0,13.0,32,0.00,,,0.00,296.000000,,2013-04-20 23:32:00,
2013-04-20 18:42:00,68.0,37.0,-100.00,East,81,8.0,13.0,32,0.00,,,0.00,296.000000,,2013-04-20 23:42:00,
2013-04-20 18:53:00,68.0,37.0,-100.00,East,81,8.0,13.0,32,0.00,,,0.00,296.000000,,2013-04-20 23:53:00,
2013-04-20 19:01:00,68.0,37.0,-100.00,East,81,8.0,13.0,32,0.00,,,0.00,296.000000,,2013-04-21 00:01:00,
2013-04-20 20:32:00,59.0,40.0,-100.00,East,80,3.0,6.0,50,-99.99,,,0.00,9.000000,,2013-04-21 01:32:00,
2013-04-20 20:42:00,59.0,40.0,-100.00,East,80,3.0,6.0,50,-99.99,,,0.00,9.000000,,2013-04-21 01:42:00,
2013-04-20 20:52:00,59.0,40.0,-100.00,East,80,3.0,6.0,50,-99.99,,,0.00,9.000000,,2013-04-21 01:52:00,
2013-04-20 21:02:00,59.0,40.0,-100.00,East,80,3.0,6.0,50,-99.99,,,0.00,9.000000,,2013-04-21 02:02:00,
2013-04-20 21:32:00,57.0,40.0,-100.00,NE,55,4.0,6.0,52,0.00,,,0.00,0.000000,,2013-04-21 02:32:00,
2013-04-20 21:42:00,57.0,40.0,-100.00,NE,55,4.0,6.0,52,0.00,,,0.00,0.000000,,2013-04-21 02:42:00,
2013-04-20 21:52:00,57.0,40.0,-100.00,NE,55,4.0,6.0,52,0.00,,,0.00,0.000000,,2013-04-21 02:52:00,
2013-04-20 22:01:00,57.0,40.0,-100.00,NE,55,4.0,6.0,52,0.00,,,0.00,0.000000,,2013-04-21 03:01:00,
2013-04-20 22:33:00,55.0,41.0,-100.00,ENE,76,4.0,6.0,59,0.00,,,0.00,0.000000,,2013-04-21 03:33:00,
2013-04-20 22:42:00,55.0,41.0,-100.00,ENE,76,4.0,6.0,59,0.00,,,0.00,0.000000,,2013-04-21 03:42:00,
2013-04-20 22:52:00,55.0,41.0,-100.00,ENE,76,4.0,6.0,59,0.00,,,0.00,0.000000,,2013-04-21 03:52:00,
2013-04-20 23:02:00,55.0,41.0,-100.00,ENE,76,4.0,6.0,59,0.00,,,0.00,0.000000,,2013-04-21 04:02:00,
2013-04-20 23:33:00,54.0,40.0,-100.00,East,82,6.0,8.0,59,0.00,,,0.00,0.000000,,2013-04-21 04:33:00,
2013-04-20 23:42:00,54.0,40.0,-100.00,East,82,6.0,8.0,59,0.00,,,0.00,0.000000,,2013-04-21 04:42:00,
2013-04-20 23:53:00,54.0,40.0,-100.00,East,82,6.0,8.0,59,0.00,,,0.00,0.000000,,2013-04-21 04:53:00,